Time;durP1;ratioP1;P1;durP2;ratioP2;P2;SDS_P1;SDS_P2;PMS_P1;PMS_P2;Temp;Humidity;BMP_temperature;BMP_pressure;BME280_temperature;BME280_humidity;BME280_pressure;Samples;Min_cycle;Max_cycle;Signal;HPM_P1;HPM_P2
2021/03/26 00:01:06;;;;;;;33.28;24.10;;;8.10;99.90;;;;;;5064138;28;20086;-56
2021/03/26 00:03:34;;;;;;;32.67;23.75;;;8.10;99.90;;;;;;5062176;28;20021;-56
2021/03/26 00:06:12;;;;;;;32.78;22.67;;;8.00;99.90;;;;;;5056076;28;20040;-57
2021/03/26 00:08:38;;;;;;;35.97;23.77;;;7.90;99.90;;;;;;5051722;28;20162;-56
2021/03/26 00:11:04;;;;;;;39.55;25.75;;;7.90;99.90;;;;;;5055298;28;20117;-56
2021/03/26 00:13:30;;;;;;;34.15;24.17;;;7.80;99.90;;;;;;5054773;28;20013;-58
2021/03/26 00:15:56;;;;;;;41.35;26.25;;;7.70;99.90;;;;;;5061890;28;20124;-56
2021/03/26 00:18:23;;;;;;;37.95;24.42;;;7.70;99.90;;;;;;5057006;28;20132;-57
2021/03/26 00:20:48;;;;;;;34.95;23.08;;;7.60;99.90;;;;;;5068037;28;20083;-57
2021/03/26 00:23:14;;;;;;;31.10;23.65;;;7.50;99.90;;;;;;5067457;28;20509;-57
2021/03/26 00:25:39;;;;;;;33.03;23.70;;;7.50;99.90;;;;;;5063656;28;20035;-55
2021/03/26 00:28:05;;;;;;;36.10;24.20;;;7.40;99.90;;;;;;5065348;28;20105;-57
2021/03/26 00:30:33;;;;;;;34.33;25.98;;;7.40;99.90;;;;;;5065308;28;20056;-57
2021/03/26 00:32:58;;;;;;;35.70;24.92;;;7.30;99.90;;;;;;5066989;28;20005;-57
2021/03/26 00:35:26;;;;;;;35.55;23.75;;;7.30;99.90;;;;;;5065651;28;20751;-57
2021/03/26 00:37:52;;;;;;;36.28;25.02;;;7.20;99.90;;;;;;5066978;28;20024;-56
2021/03/26 00:40:19;;;;;;;40.58;25.67;;;7.20;99.90;;;;;;5068620;28;20210;-56
2021/03/26 00:42:45;;;;;;;36.55;25.20;;;7.10;99.90;;;;;;5068306;28;20032;-56
2021/03/26 00:45:15;;;;;;;33.50;24.02;;;7.10;99.90;;;;;;5043230;28;675084;-58
2021/03/26 00:47:41;;;;;;;34.70;24.77;;;7.00;99.90;;;;;;5067545;28;20493;-58
2021/03/26 00:50:20;;;;;;;36.83;25.10;;;7.00;99.90;;;;;;5068828;28;20008;-58
2021/03/26 00:52:46;;;;;;;38.90;25.98;;;6.90;99.90;;;;;;5068883;28;20095;-58
2021/03/26 00:55:12;;;;;;;33.67;24.17;;;6.90;99.90;;;;;;5068482;28;20119;-57
2021/03/26 00:57:38;;;;;;;37.10;25.00;;;6.80;99.90;;;;;;5066160;28;20107;-58
2021/03/26 01:00:07;;;;;;;36.08;24.52;;;6.70;99.90;;;;;;5067765;28;20436;-58
2021/03/26 01:02:32;;;;;;;34.70;24.40;;;6.70;99.90;;;;;;5065489;28;20028;-58
2021/03/26 01:04:58;;;;;;;37.95;25.20;;;6.60;99.90;;;;;;5067851;28;20032;-58
2021/03/26 01:07:24;;;;;;;33.83;22.67;;;6.60;99.90;;;;;;5067028;28;20094;-60
2021/03/26 01:09:49;;;;;;;38.50;23.98;;;6.50;99.90;;;;;;5058221;28;20021;-57
2021/03/26 01:12:15;;;;;;;38.42;24.80;;;6.50;99.90;;;;;;5061945;28;20119;-58
2021/03/26 01:14:40;;;;;;;40.30;25.08;;;6.40;99.90;;;;;;5067785;28;20024;-57
2021/03/26 01:17:06;;;;;;;36.60;23.73;;;6.40;99.90;;;;;;5081147;28;20040;-58
2021/03/26 01:19:37;;;;;;;34.10;22.92;;;6.30;99.90;;;;;;5076236;28;20038;-58
2021/03/26 01:22:04;;;;;;;34.15;23.13;;;6.30;99.90;;;;;;5067167;28;20116;-57
2021/03/26 01:24:29;;;;;;;36.85;23.50;;;6.20;99.90;;;;;;5069724;28;20650;-58
2021/03/26 01:26:55;;;;;;;39.42;25.65;;;6.20;99.90;;;;;;5065155;28;20036;-58
2021/03/26 01:29:20;;;;;;;37.10;24.02;;;6.10;99.90;;;;;;5073149;28;20024;-58
2021/03/26 01:31:46;;;;;;;30.98;22.10;;;6.10;99.90;;;;;;5085075;28;20024;-58
2021/03/26 01:34:11;;;;;;;34.03;23.58;;;6.00;99.90;;;;;;5072217;28;20086;-58
2021/03/26 01:36:37;;;;;;;34.53;22.63;;;6.00;99.90;;;;;;5072798;28;20133;-57
2021/03/26 01:39:05;;;;;;;35.97;23.13;;;6.00;99.90;;;;;;5067948;28;20036;-58
2021/03/26 01:41:46;;;;;;;37.75;23.52;;;5.90;99.90;;;;;;5073823;28;20032;-57
2021/03/26 01:44:14;;;;;;;33.05;23.23;;;5.80;99.90;;;;;;5074612;28;20039;-57
2021/03/26 01:46:41;;;;;;;34.50;24.30;;;5.80;99.90;;;;;;5073425;28;20656;-57
2021/03/26 01:49:08;;;;;;;38.03;23.70;;;5.70;99.90;;;;;;5063252;28;20112;-58
2021/03/26 01:51:38;;;;;;;37.92;24.00;;;5.70;99.90;;;;;;5068104;28;20052;-57
2021/03/26 01:54:06;;;;;;;38.50;23.88;;;5.70;99.90;;;;;;5069514;28;20079;-57
2021/03/26 01:56:32;;;;;;;36.42;23.42;;;5.60;99.90;;;;;;5068878;28;20028;-58
2021/03/26 01:58:58;;;;;;;38.00;23.23;;;5.60;99.90;;;;;;5073194;28;20021;-57
2021/03/26 02:01:40;;;;;;;34.53;23.63;;;5.50;99.90;;;;;;5074410;28;20039;-57
2021/03/26 02:04:07;;;;;;;38.10;24.60;;;5.50;99.90;;;;;;5070361;28;20068;-57
2021/03/26 02:06:37;;;;;;;37.25;25.17;;;5.50;99.90;;;;;;5060824;28;20039;-57
2021/03/26 02:09:15;;;;;;;39.35;25.67;;;5.40;99.90;;;;;;5075011;28;20020;-57
2021/03/26 02:11:57;;;;;;;38.65;24.60;;;5.40;99.90;;;;;;5066508;28;20047;-57
2021/03/26 02:14:32;;;;;;;38.30;24.52;;;5.40;99.90;;;;;;5070459;28;20071;-57
2021/03/26 02:16:57;;;;;;;42.92;26.98;;;5.30;99.90;;;;;;5078564;28;20029;-56
2021/03/26 02:19:37;;;;;;;39.67;24.88;;;5.30;99.90;;;;;;5071472;28;20090;-58
2021/03/26 02:22:03;;;;;;;38.65;26.20;;;5.30;99.90;;;;;;5078470;28;20020;-57
2021/03/26 02:24:29;;;;;;;38.20;25.10;;;5.20;99.90;;;;;;5067046;28;20017;-56
2021/03/26 02:27:05;;;;;;;37.25;26.15;;;5.20;99.90;;;;;;5059428;28;20017;-56
2021/03/26 02:29:34;;;;;;;38.63;23.83;;;5.20;99.90;;;;;;5078344;28;20015;-57
2021/03/26 02:32:06;;;;;;;38.22;24.00;;;5.20;99.90;;;;;;5079810;28;20025;-57
2021/03/26 02:34:31;;;;;;;43.63;25.92;;;5.10;99.90;;;;;;5062411;28;20044;-57
2021/03/26 02:37:02;;;;;;;38.97;25.25;;;5.10;99.90;;;;;;5075305;28;20028;-58
2021/03/26 02:39:42;;;;;;;38.88;25.17;;;5.10;99.90;;;;;;5076832;28;20099;-56
2021/03/26 02:42:19;;;;;;;37.90;24.63;;;5.00;99.90;;;;;;5067303;28;20104;-56
2021/03/26 02:44:50;;;;;;;43.03;24.90;;;5.00;99.90;;;;;;5070907;28;20074;-56
2021/03/26 02:47:30;;;;;;;36.88;25.30;;;4.90;99.90;;;;;;5068780;28;20489;-56
2021/03/26 02:50:02;;;;;;;36.03;24.65;;;4.90;99.90;;;;;;5066008;28;20044;-57
2021/03/26 02:52:30;;;;;;;39.45;23.48;;;4.90;99.90;;;;;;5074594;28;20096;-56
2021/03/26 02:54:56;;;;;;;38.88;24.23;;;4.80;99.90;;;;;;5076463;28;20093;-57
2021/03/26 02:57:43;;;;;;;35.67;23.52;;;4.80;99.90;;;;;;5075210;28;20028;-58
2021/03/26 03:00:14;;;;;;;;;;;4.80;99.90;;;;;;5072882;28;20034;-58
2021/03/26 03:02:41;;;;;;;39.50;24.25;;;4.70;99.90;;;;;;5067592;28;19991;-58
2021/03/26 03:05:31;;;;;;;39.97;25.13;;;4.70;99.90;;;;;;5066849;28;20073;-57
2021/03/26 03:08:08;;;;;;;35.17;23.13;;;4.60;99.90;;;;;;5067704;28;20024;-58
2021/03/26 03:10:38;;;;;;;;;;;4.60;99.90;;;;;;5069186;28;20016;-58
2021/03/26 03:13:14;;;;;;;33.55;22.20;;;4.50;99.90;;;;;;5067916;28;19904;-57
2021/03/26 03:15:46;;;;;;;39.08;23.48;;;4.50;99.90;;;;;;5068641;28;20052;-58
2021/03/26 03:18:34;;;;;;;37.42;23.88;;;4.50;99.90;;;;;;5066153;28;20031;-58
2021/03/26 03:21:23;;;;;;;35.90;23.27;;;4.50;99.90;;;;;;5062557;28;20078;-58
2021/03/26 03:24:09;;;;;;;40.13;22.13;;;4.40;99.90;;;;;;5065241;28;20030;-58
2021/03/26 03:26:44;;;;;;;35.30;23.10;;;4.40;99.90;;;;;;5068982;28;20100;-58
2021/03/26 03:29:12;;;;;;;40.58;24.27;;;4.30;99.90;;;;;;5074223;28;20049;-56
2021/03/26 03:31:52;;;;;;;35.65;22.25;;;4.30;99.90;;;;;;5072466;28;20097;-58
2021/03/26 03:34:36;;;;;;;35.85;23.50;;;4.30;99.90;;;;;;5063362;28;20434;-59
2021/03/26 03:37:31;;;;;;;38.03;23.63;;;4.20;99.90;;;;;;5064501;28;20021;-58
2021/03/26 03:40:12;;;;;;;30.77;21.20;;;4.20;99.90;;;;;;5065649;28;20039;-58
2021/03/26 03:42:40;;;;;;;37.38;23.20;;;4.20;99.90;;;;;;5071667;28;20035;-58
2021/03/26 03:45:29;;;;;;;34.20;21.63;;;4.10;99.90;;;;;;5065622;28;20113;-57
2021/03/26 03:48:06;;;;;;;33.25;21.83;;;4.00;99.90;;;;;;5061840;28;20061;-57
2021/03/26 03:50:40;;;;;;;31.63;21.08;;;4.00;99.90;;;;;;5065907;28;20021;-58
2021/03/26 03:53:39;;;;;;;31.50;22.50;;;3.90;99.90;;;;;;5080037;28;20051;-58
2021/03/26 03:56:15;;;;;;;33.28;20.98;;;3.90;99.90;;;;;;5082882;28;20454;-58
2021/03/26 03:58:47;;;;;;;29.20;19.98;;;3.90;99.90;;;;;;5067750;28;20116;-58
2021/03/26 04:01:46;;;;;;;32.65;21.45;;;3.80;99.90;;;;;;5064331;28;20062;-58
2021/03/26 04:04:30;;;;;;;33.97;21.00;;;3.80;99.90;;;;;;5068296;28;20025;-57
2021/03/26 04:07:07;;;;;;;36.30;22.17;;;3.80;99.90;;;;;;5064490;28;20027;-58
2021/03/26 04:09:45;;;;;;;32.35;20.85;;;3.70;99.90;;;;;;5066589;28;20031;-58
2021/03/26 04:12:15;;;;;;;35.25;21.02;;;3.70;99.90;;;;;;5064657;28;20095;-59
2021/03/26 04:14:50;;;;;;;35.28;20.65;;;3.70;99.90;;;;;;5068305;28;20083;-58
2021/03/26 04:17:25;;;;;;;36.88;22.85;;;3.60;99.90;;;;;;5062298;28;20116;-56
2021/03/26 04:20:01;;;;;;;33.17;23.02;;;3.60;99.90;;;;;;5064559;28;20035;-57
2021/03/26 04:22:36;;;;;;;43.53;22.95;;;3.60;99.90;;;;;;5065098;28;20113;-57
2021/03/26 04:25:09;;;;;;;34.83;22.55;;;3.60;99.90;;;;;;5064759;28;20469;-59
2021/03/26 04:27:40;;;;;;;33.50;22.77;;;3.60;99.90;;;;;;5067577;28;20087;-57
2021/03/26 04:30:24;;;;;;;35.97;22.90;;;3.50;99.90;;;;;;5068054;28;20052;-57
2021/03/26 04:32:51;;;;;;;32.80;21.27;;;3.60;99.90;;;;;;5064295;28;20029;-56
2021/03/26 04:35:18;;;;;;;37.20;23.67;;;3.50;99.90;;;;;;5060681;28;20606;-58
2021/03/26 04:37:55;;;;;;;45.00;27.10;;;3.50;99.90;;;;;;5068031;28;20093;-58
2021/03/26 04:40:26;;;;;;;;;;;3.50;99.90;;;;;;5065738;28;20021;-57
2021/03/26 04:43:15;;;;;;;35.22;22.52;;;3.50;99.90;;;;;;5063221;28;19919;-58
2021/03/26 04:45:51;;;;;;;42.58;24.75;;;3.40;99.90;;;;;;5067367;28;20036;-58
2021/03/26 04:48:42;;;;;;;36.97;23.42;;;3.40;99.90;;;;;;5065727;28;20059;-57
2021/03/26 04:51:28;;;;;;;41.35;23.55;;;3.40;99.90;;;;;;5063695;28;20425;-57
2021/03/26 04:54:06;;;;;;;35.67;23.27;;;3.40;99.90;;;;;;5066823;28;20025;-55
2021/03/26 04:56:38;;;;;;;41.92;24.23;;;3.30;99.90;;;;;;5065050;28;20064;-58
2021/03/26 04:59:07;;;;;;;39.95;24.02;;;3.30;99.90;;;;;;5067354;28;20034;-56
2021/03/26 05:01:35;;;;;;;40.50;24.35;;;3.30;99.90;;;;;;5065588;28;20042;-57
2021/03/26 05:04:06;;;;;;;41.92;25.58;;;3.20;99.90;;;;;;5067491;28;20055;-57
2021/03/26 05:06:36;;;;;;;41.85;25.67;;;3.20;99.90;;;;;;5066785;28;20078;-56
2021/03/26 05:09:22;;;;;;;40.00;24.40;;;3.20;99.90;;;;;;5067348;28;20111;-57
2021/03/26 05:11:54;;;;;;;44.40;25.93;;;3.20;99.90;;;;;;5065051;28;20498;-55
2021/03/26 05:14:53;;;;;;;41.35;25.55;;;3.20;99.90;;;;;;5060753;28;20029;-58
2021/03/26 05:17:27;;;;;;;43.78;26.00;;;3.20;99.90;;;;;;5059852;28;20033;-57
2021/03/26 05:19:55;;;;;;;44.22;26.83;;;3.20;99.90;;;;;;5065603;28;20028;-55
2021/03/26 05:22:36;;;;;;;44.72;27.08;;;3.20;99.90;;;;;;5053535;28;20436;-56
2021/03/26 05:25:10;;;;;;;44.80;26.92;;;3.20;99.90;;;;;;5056498;28;20583;-56
2021/03/26 05:27:36;;;;;;;46.13;27.60;;;3.20;99.90;;;;;;5063540;28;20035;-57
2021/03/26 05:30:02;;;;;;;48.13;28.90;;;3.20;99.90;;;;;;5067071;28;20028;-58
2021/03/26 05:32:46;;;;;;;48.67;28.38;;;3.20;99.90;;;;;;5060038;28;20040;-57
2021/03/26 05:35:26;;;;;;;50.33;27.80;;;3.20;99.90;;;;;;5058519;28;20017;-58
2021/03/26 05:38:00;;;;;;;53.13;29.20;;;3.20;99.90;;;;;;5067347;28;20036;-56
2021/03/26 05:40:28;;;;;;;55.15;28.55;;;3.20;99.90;;;;;;5065273;28;20036;-55
2021/03/26 05:43:08;;;;;;;51.65;30.05;;;3.30;99.90;;;;;;5071242;28;20095;-57
2021/03/26 05:45:58;;;;;;;49.60;28.55;;;3.20;99.90;;;;;;5061223;28;20088;-57
2021/03/26 05:48:51;;;;;;;51.17;27.23;;;3.20;99.90;;;;;;5062827;28;20067;-58
2021/03/26 05:51:36;;;;;;;48.28;27.30;;;3.30;99.90;;;;;;5053512;28;20017;-56
2021/03/26 05:54:24;;;;;;;57.38;30.13;;;3.30;99.90;;;;;;5062675;28;20204;-57
2021/03/26 05:57:17;;;;;;;48.67;27.40;;;3.30;99.90;;;;;;5063615;28;20017;-54
2021/03/26 06:00:15;;;;;;;54.78;30.63;;;3.30;99.90;;;;;;5062813;28;20401;-54
2021/03/26 06:02:53;;;;;;;52.40;30.50;;;3.30;99.90;;;;;;5067074;28;20046;-56
2021/03/26 06:05:39;;;;;;;49.05;28.95;;;3.40;99.90;;;;;;5067379;28;20112;-57
2021/03/26 06:08:36;;;;;;;57.37;30.90;;;3.40;99.90;;;;;;5067200;28;20738;-56
2021/03/26 06:11:10;;;;;;;55.65;30.25;;;3.50;99.90;;;;;;5067828;28;20402;-56
2021/03/26 06:13:39;;;;;;;60.03;30.83;;;3.50;99.90;;;;;;5064509;28;20024;-58
2021/03/26 06:16:25;;;;;;;54.65;31.38;;;3.50;99.90;;;;;;5067062;28;20036;-56
2021/03/26 06:18:59;;;;;;;56.22;29.63;;;3.60;99.90;;;;;;5067235;28;20021;-58
2021/03/26 06:21:34;;;;;;;70.63;34.28;;;3.60;99.90;;;;;;5065952;28;20520;-58
2021/03/26 06:24:06;;;;;;;66.27;34.77;;;3.70;99.90;;;;;;5066887;28;20064;-58
2021/03/26 06:26:40;;;;;;;53.65;32.20;;;3.80;99.90;;;;;;5067488;28;20263;-60
2021/03/26 06:29:44;;;;;;;68.40;32.42;;;3.80;99.90;;;;;;5058364;28;20126;-59
2021/03/26 06:32:47;;;;;;;57.15;32.50;;;3.90;99.90;;;;;;5058923;28;20079;-60
2021/03/26 06:35:21;;;;;;;66.78;34.35;;;4.00;99.90;;;;;;5065351;28;20100;-59
2021/03/26 06:38:24;;;;;;;71.13;36.22;;;4.10;99.90;;;;;;5071069;28;20832;-57
2021/03/26 06:41:21;;;;;;;65.72;34.67;;;4.10;99.90;;;;;;5069072;28;20028;-58
2021/03/26 06:44:09;;;;;;;64.95;36.03;;;4.30;99.90;;;;;;5059298;28;20037;-56
2021/03/26 06:46:46;;;;;;;69.55;36.28;;;4.40;99.90;;;;;;5069586;28;20024;-58
2021/03/26 06:49:34;;;;;;;71.28;35.90;;;4.40;99.90;;;;;;5070667;28;20127;-58
2021/03/26 06:52:11;;;;;;;72.00;36.63;;;4.50;99.90;;;;;;5070746;28;20059;-58
2021/03/26 06:55:09;;;;;;;70.60;35.53;;;4.70;99.90;;;;;;5070481;28;20498;-57
2021/03/26 06:57:53;;;;;;;76.05;37.78;;;4.70;99.90;;;;;;5070474;28;20478;-58
2021/03/26 07:00:28;;;;;;;77.20;37.17;;;4.90;99.90;;;;;;5070049;28;20436;-57
2021/03/26 07:03:06;;;;;;;78.13;38.78;;;5.00;99.90;;;;;;5068445;28;20057;-57
2021/03/26 07:06:12;;;;;;;72.88;38.10;;;5.10;99.90;;;;;;5068627;28;20028;-58
2021/03/26 07:09:03;;;;;;;83.80;39.97;;;5.30;99.90;;;;;;5070193;28;20067;-58
2021/03/26 07:11:54;;;;;;;76.93;41.17;;;5.40;99.90;;;;;;5056205;28;20246;-58
2021/03/26 07:14:25;;;;;;;85.63;42.83;;;5.70;99.90;;;;;;5062045;28;20032;-58
2021/03/26 07:17:00;;;;;;;89.70;44.10;;;5.80;99.90;;;;;;5064859;28;20039;-58
2021/03/26 07:19:42;;;;;;;78.82;44.15;;;6.00;99.90;;;;;;5068731;28;20074;-58
2021/03/26 07:22:14;;;;;;;84.15;45.08;;;6.10;99.90;;;;;;5065108;28;20468;-58
2021/03/26 07:24:50;;;;;;;84.32;44.00;;;6.30;99.90;;;;;;5067857;28;20509;-57
2021/03/26 07:27:44;;;;;;;90.97;44.58;;;6.50;99.90;;;;;;5070060;28;20048;-56
2021/03/26 07:30:42;;;;;;;73.88;43.38;;;6.70;99.90;;;;;;5070223;28;20051;-58
2021/03/26 07:33:32;;;;;;;87.57;45.20;;;6.90;99.90;;;;;;5069204;28;20021;-56
2021/03/26 07:36:07;;;;;;;78.10;45.60;;;7.10;99.90;;;;;;5069922;28;20501;-57
2021/03/26 07:38:33;;;;;;;78.15;44.00;;;7.40;99.90;;;;;;5069835;28;20120;-56
2021/03/26 07:41:13;;;;;;;60.63;37.72;;;7.60;99.90;;;;;;5069975;28;20040;-57
2021/03/26 07:44:31;;;;;;;63.00;39.95;;;7.90;99.90;;;;;;5068430;28;20032;-58
2021/03/26 07:47:36;;;;;;;58.33;35.92;;;8.20;99.90;;;;;;5047541;28;20043;-58
2021/03/26 07:50:35;;;;;;;57.25;36.45;;;8.50;99.90;;;;;;5062669;28;20049;-59
2021/03/26 07:53:20;;;;;;;56.80;36.35;;;8.80;99.90;;;;;;5042726;28;20097;-58
2021/03/26 07:56:04;;;;;;;50.25;34.83;;;9.10;99.90;;;;;;5069008;28;20025;-56
2021/03/26 07:58:48;;;;;;;50.42;33.03;;;9.30;99.90;;;;;;5064225;28;20104;-57
2021/03/26 08:01:33;;;;;;;45.75;32.05;;;9.60;99.90;;;;;;5068913;28;20016;-58
2021/03/26 08:04:02;;;;;;;49.72;32.17;;;9.80;99.90;;;;;;5067507;28;20060;-57
2021/03/26 08:07:08;;;;;;;46.28;31.98;;;10.10;99.90;;;;;;5067759;28;20048;-57
2021/03/26 08:09:51;;;;;;;45.63;30.15;;;10.40;99.90;;;;;;5068534;28;20496;-57
2021/03/26 08:12:48;;;;;;;43.42;30.58;;;10.60;99.90;;;;;;5068196;28;20104;-58
2021/03/26 08:15:42;;;;;;;43.78;28.10;;;10.90;99.90;;;;;;5069084;28;20417;-59
2021/03/26 08:18:36;;;;;;;43.38;29.55;;;11.10;99.90;;;;;;5069175;28;20453;-58
2021/03/26 08:21:09;;;;;;;37.72;27.13;;;11.30;99.90;;;;;;5069162;28;20074;-58
2021/03/26 08:24:00;;;;;;;43.97;28.90;;;11.50;99.90;;;;;;5068730;28;20046;-59
2021/03/26 08:26:39;;;;;;;35.60;26.77;;;11.70;99.90;;;;;;5068887;28;20123;-59
2021/03/26 08:29:24;;;;;;;36.47;27.40;;;12.00;99.90;;;;;;5069005;28;20029;-57
2021/03/26 08:32:08;;;;;;;37.50;26.38;;;12.20;99.90;;;;;;5068704;28;20055;-57
2021/03/26 08:34:47;;;;;;;36.58;26.60;;;12.40;99.90;;;;;;5068082;28;20090;-58
2021/03/26 08:37:18;;;;;;;34.17;24.67;;;12.50;99.90;;;;;;5068810;28;20056;-57
2021/03/26 08:39:51;;;;;;;33.08;23.25;;;12.50;99.90;;;;;;5068842;28;20020;-58
2021/03/26 08:42:42;;;;;;;31.45;22.98;;;12.50;99.90;;;;;;5066326;28;20067;-58
2021/03/26 08:45:08;;;;;;;32.70;22.95;;;12.40;99.90;;;;;;5068458;28;20024;-58
2021/03/26 08:47:40;;;;;;;32.40;23.30;;;12.30;99.90;;;;;;5068662;28;20025;-59
2021/03/26 08:50:29;;;;;;;32.60;24.20;;;12.40;99.90;;;;;;5068729;28;20023;-56
2021/03/26 08:53:24;;;;;;;32.95;23.60;;;12.60;99.90;;;;;;5068461;28;20024;-59
2021/03/26 08:56:37;;;;;;;32.00;23.58;;;12.90;99.90;;;;;;5068438;28;20029;-58
2021/03/26 08:59:17;;;;;;;28.42;21.45;;;13.10;99.90;;;;;;5028355;28;20050;-57
2021/03/26 09:01:55;;;;;;;28.90;21.77;;;13.40;99.90;;;;;;5063536;28;20021;-58
2021/03/26 09:04:35;;;;;;;30.35;22.17;;;13.60;99.90;;;;;;5066617;28;20070;-58
2021/03/26 09:07:21;;;;;;;27.10;20.90;;;13.70;99.90;;;;;;5068391;28;20458;-58
2021/03/26 09:10:05;;;;;;;28.07;21.67;;;13.90;99.90;;;;;;5068757;28;20116;-57
2021/03/26 09:12:50;;;;;;;33.95;21.50;;;14.10;99.90;;;;;;5054473;28;20016;-59
2021/03/26 09:15:30;;;;;;;26.45;18.75;;;14.30;99.90;;;;;;5055126;28;20108;-57
2021/03/26 09:18:20;;;;;;;23.05;16.92;;;14.40;99.90;;;;;;5064150;28;20024;-58
2021/03/26 09:20:58;;;;;;;21.67;16.83;;;14.50;99.90;;;;;;5068349;28;20032;-59
2021/03/26 09:23:54;;;;;;;21.17;14.75;;;14.60;99.90;;;;;;5055928;28;20027;-56
2021/03/26 09:26:56;;;;;;;20.33;13.88;;;14.50;99.70;;;;;;5059476;28;20040;-58
2021/03/26 09:29:55;;;;;;;18.60;12.82;;;14.40;98.80;;;;;;5067797;28;20051;-58
2021/03/26 09:32:28;;;;;;;14.70;11.77;;;14.40;96.30;;;;;;5067613;28;20026;-59
2021/03/26 09:35:21;;;;;;;16.30;10.98;;;14.20;95.30;;;;;;5067094;28;20107;-58
2021/03/26 09:37:53;;;;;;;16.75;11.60;;;14.00;95.00;;;;;;5066526;28;20029;-57
2021/03/26 09:40:39;;;;;;;15.25;11.30;;;13.90;93.90;;;;;;5071201;28;20017;-56
2021/03/26 09:43:29;;;;;;;16.40;12.45;;;13.90;95.60;;;;;;5066893;28;20030;-58
2021/03/26 09:46:00;;;;;;;18.00;12.15;;;14.10;96.80;;;;;;5067262;28;20028;-58
2021/03/26 09:48:45;;;;;;;15.82;12.55;;;14.30;95.80;;;;;;5066425;28;20017;-58
2021/03/26 09:51:58;;;;;;;17.15;12.68;;;14.60;94.90;;;;;;5059929;28;20021;-59
2021/03/26 09:54:47;;;;;;;17.50;13.57;;;14.70;96.40;;;;;;5024554;28;20106;-59
2021/03/26 09:57:37;;;;;;;17.48;13.43;;;15.00;95.30;;;;;;5063559;28;20046;-59
2021/03/26 10:00:21;;;;;;;16.33;12.25;;;15.00;93.90;;;;;;5067421;28;20028;-59
2021/03/26 10:03:11;;;;;;;14.82;12.15;;;14.70;93.80;;;;;;5051266;28;20075;-59
2021/03/26 10:05:42;;;;;;;15.18;12.05;;;14.60;94.10;;;;;;5066803;28;20670;-59
2021/03/26 10:11:25;;;;;;;16.20;11.18;;;14.50;92.80;;;;;;5070813;28;20067;-58
2021/03/26 10:14:03;;;;;;;16.75;11.40;;;14.60;94.90;;;;;;5071837;28;20498;-59
2021/03/26 10:16:51;;;;;;;15.70;11.65;;;14.90;93.60;;;;;;5071765;28;20016;-59
2021/03/26 10:19:25;;;;;;;16.70;12.57;;;15.10;93.60;;;;;;5071490;28;20417;-56
2021/03/26 10:21:55;;;;;;;18.27;12.18;;;15.30;93.30;;;;;;5071559;28;20502;-58
2021/03/26 10:24:33;;;;;;;18.30;12.82;;;15.50;94.00;;;;;;5070676;28;20101;-58
2021/03/26 10:27:40;;;;;;;15.65;12.27;;;15.60;93.30;;;;;;5070502;28;20024;-59
2021/03/26 10:30:20;;;;;;;13.20;8.82;;;15.50;90.80;;;;;;5028915;28;20477;-57
2021/03/26 10:32:49;;;;;;;12.80;9.73;;;15.30;85.70;;;;;;5068335;28;20032;-57
2021/03/26 10:35:26;;;;;;;17.45;11.43;;;15.20;89.80;;;;;;5071176;28;20040;-58
2021/03/26 10:38:00;;;;;;;14.23;9.80;;;15.40;90.70;;;;;;5071538;28;20021;-59
2021/03/26 10:40:52;;;;;;;12.25;8.73;;;15.50;85.90;;;;;;5071584;28;20020;-58
2021/03/26 10:43:30;;;;;;;10.20;7.57;;;15.40;84.30;;;;;;5070781;28;20031;-57
2021/03/26 10:46:14;;;;;;;10.52;7.47;;;15.40;86.50;;;;;;5071214;28;20509;-57
2021/03/26 10:48:48;;;;;;;8.77;7.60;;;15.40;84.90;;;;;;5071355;28;20106;-55
2021/03/26 10:51:25;;;;;;;10.75;8.13;;;15.40;83.50;;;;;;5071139;28;20620;-57
2021/03/26 10:54:13;;;;;;;11.73;7.70;;;15.40;88.40;;;;;;5071383;28;20020;-56
2021/03/26 10:57:17;;;;;;;11.32;7.30;;;15.40;85.80;;;;;;5052603;28;20048;-58
2021/03/26 10:59:51;;;;;;;11.45;8.45;;;15.30;83.10;;;;;;5066335;28;20029;-59
2021/03/26 11:02:54;;;;;;;10.48;7.53;;;15.20;83.00;;;;;;5065280;28;20029;-59
2021/03/26 11:05:28;;;;;;;11.95;8.45;;;15.20;83.90;;;;;;5067532;28;20413;-59
2021/03/26 11:08:00;;;;;;;9.88;7.55;;;15.30;83.00;;;;;;5069923;28;20078;-57
2021/03/26 11:10:34;;;;;;;8.20;6.50;;;15.30;81.50;;;;;;5068954;28;20033;-58
2021/03/26 11:13:23;;;;;;;9.43;7.18;;;15.40;83.50;;;;;;5066666;28;20023;-60
2021/03/26 11:15:54;;;;;;;12.38;7.07;;;15.40;81.30;;;;;;5069675;28;20100;-59
2021/03/26 11:18:50;;;;;;;11.50;7.25;;;15.50;81.70;;;;;;5069228;28;20494;-59
2021/03/26 11:21:19;;;;;;;12.38;6.97;;;15.60;84.00;;;;;;5052692;28;20036;-60
2021/03/26 11:23:55;;;;;;;12.25;7.45;;;15.60;80.30;;;;;;5069425;28;20111;-59
2021/03/26 11:26:38;;;;;;;11.38;7.70;;;15.60;81.50;;;;;;5069268;28;20030;-60
2021/03/26 11:29:25;;;;;;;9.77;7.50;;;15.50;79.90;;;;;;5066395;28;20025;-58
2021/03/26 11:32:01;;;;;;;9.27;7.55;;;15.50;83.70;;;;;;5066500;28;20076;-59
2021/03/26 11:35:08;;;;;;;12.88;7.38;;;15.60;80.70;;;;;;5069269;28;20016;-58
2021/03/26 11:37:48;;;;;;;10.73;7.37;;;15.80;80.20;;;;;;4993921;28;20456;-58
2021/03/26 11:40:37;;;;;;;6.32;5.28;;;15.90;77.20;;;;;;5056822;28;20029;-58
2021/03/26 11:43:17;;;;;;;9.20;7.13;;;16.00;77.90;;;;;;5069593;28;20477;-60
2021/03/26 11:46:05;;;;;;;9.80;6.22;;;16.10;77.60;;;;;;5069485;28;20047;-59
2021/03/26 11:48:52;;;;;;;10.68;6.00;;;16.20;79.40;;;;;;5068743;28;20413;-60
2021/03/26 11:51:21;;;;;;;;;;;16.30;76.30;;;;;;5069486;28;20040;-58
2021/03/26 11:54:00;;;;;;;10.15;5.10;;;16.20;74.70;;;;;;5069665;28;20001;-59
2021/03/26 11:56:41;;;;;;;6.47;5.38;;;16.30;74.90;;;;;;5069392;28;20025;-57
2021/03/26 11:59:16;;;;;;;7.68;5.95;;;16.20;73.70;;;;;;5065560;28;20070;-57
2021/03/26 12:02:22;;;;;;;8.77;6.20;;;16.10;74.20;;;;;;5069370;28;20021;-55
2021/03/26 12:05:13;;;;;;;8.43;6.10;;;16.10;76.50;;;;;;5064849;28;20107;-58
2021/03/26 12:08:10;;;;;;;8.82;5.82;;;16.00;74.20;;;;;;5063367;28;20064;-56
2021/03/26 12:10:37;;;;;;;6.47;5.07;;;16.00;76.50;;;;;;5042208;28;20035;-58
2021/03/26 12:13:19;;;;;;;9.05;6.75;;;15.90;76.10;;;;;;5069181;28;20897;-59
2021/03/26 12:15:55;;;;;;;7.07;5.68;;;15.80;72.00;;;;;;5069182;28;20028;-59
2021/03/26 12:18:45;;;;;;;8.30;5.95;;;15.90;73.10;;;;;;5068942;28;20020;-58
2021/03/26 12:21:24;;;;;;;7.93;5.60;;;15.90;72.70;;;;;;5068559;28;20027;-59
2021/03/26 12:24:21;;;;;;;9.80;6.13;;;16.00;74.20;;;;;;5068771;28;20100;-57
2021/03/26 12:26:55;;;;;;;7.22;5.43;;;16.00;71.60;;;;;;5068415;28;20032;-58
2021/03/26 12:29:36;;;;;;;6.47;5.05;;;16.10;72.10;;;;;;5068021;28;20443;-59
2021/03/26 12:32:04;;;;;;;6.50;5.40;;;16.10;73.70;;;;;;5068376;28;20103;-58
2021/03/26 12:34:51;;;;;;;8.20;5.50;;;16.20;70.60;;;;;;5068228;28;20021;-57
2021/03/26 12:37:22;;;;;;;7.40;4.85;;;16.20;72.70;;;;;;5067418;28;20028;-59
2021/03/26 12:40:02;;;;;;;6.65;4.70;;;16.30;71.40;;;;;;5068248;28;20024;-58
2021/03/26 12:42:41;;;;;;;8.50;5.20;;;16.30;69.70;;;;;;5068473;28;20024;-59
2021/03/26 12:45:18;;;;;;;6.10;4.78;;;16.40;69.00;;;;;;5067039;28;20445;-59
2021/03/26 12:48:01;;;;;;;6.68;5.72;;;16.60;68.80;;;;;;5068240;28;20047;-57
2021/03/26 12:50:45;;;;;;;7.63;5.63;;;16.70;69.80;;;;;;5068453;28;20017;-59
2021/03/26 12:53:15;;;;;;;5.78;5.03;;;16.70;68.30;;;;;;5066592;28;20432;-58
2021/03/26 12:56:02;;;;;;;5.32;4.57;;;16.90;67.20;;;;;;5068393;28;20059;-58
2021/03/26 12:58:46;;;;;;;;;;;16.90;68.40;;;;;;5066742;28;20033;-57
2021/03/26 13:01:19;;;;;;;8.38;5.55;;;16.90;65.70;;;;;;5066486;28;19912;-58
2021/03/26 13:03:57;;;;;;;8.25;5.43;;;16.80;66.80;;;;;;5068026;28;20025;-58
2021/03/26 13:06:37;;;;;;;8.20;4.97;;;16.70;66.80;;;;;;5068251;28;20035;-59
2021/03/26 13:09:21;;;;;;;5.97;4.95;;;16.60;64.80;;;;;;5067925;28;20039;-60
2021/03/26 13:11:51;;;;;;;7.00;5.43;;;16.60;65.30;;;;;;5067943;28;20024;-59
2021/03/26 13:14:33;;;;;;;7.20;5.60;;;16.60;65.90;;;;;;5065533;28;20027;-60
2021/03/26 13:17:00;;;;;;;8.15;5.28;;;16.70;67.00;;;;;;5067057;28;20020;-58
2021/03/26 13:19:29;;;;;;;8.38;5.82;;;16.90;66.10;;;;;;5066726;28;20481;-59
2021/03/26 13:22:22;;;;;;;6.55;5.95;;;17.00;65.20;;;;;;5067152;28;20025;-59
2021/03/26 13:25:13;;;;;;;11.52;6.50;;;17.20;65.50;;;;;;5067237;28;20050;-58
2021/03/26 13:27:48;;;;;;;8.50;7.50;;;17.20;65.60;;;;;;5062284;28;20602;-59
2021/03/26 13:30:19;;;;;;;7.75;6.85;;;17.00;65.60;;;;;;5065448;28;20040;-57
2021/03/26 13:32:57;;;;;;;11.35;8.25;;;17.00;65.50;;;;;;5064996;28;20281;-56
2021/03/26 13:35:55;;;;;;;9.98;8.23;;;16.90;66.20;;;;;;5059325;28;20028;-60
2021/03/26 13:38:46;;;;;;;9.82;8.57;;;16.80;64.90;;;;;;5063692;28;20516;-59
2021/03/26 13:41:40;;;;;;;8.75;7.80;;;16.70;65.60;;;;;;5065573;28;20078;-59